sensor_id;sensor_type;location;lat;lon;timestamp;temperature;humidity
40323;DHT22;26030;51.164;17.100;2023-03-30T00:01:59;22.90;53.70
40323;DHT22;26030;51.164;17.100;2023-03-30T00:07:06;23.00;53.50
40323;DHT22;26030;51.164;17.100;2023-03-30T00:12:11;23.10;53.30
40323;DHT22;26030;51.164;17.100;2023-03-30T00:17:17;23.10;53.30
40323;DHT22;26030;51.164;17.100;2023-03-30T00:22:21;23.10;53.90
40323;DHT22;26030;51.164;17.100;2023-03-30T00:27:25;23.10;53.10
40323;DHT22;26030;51.164;17.100;2023-03-30T00:32:29;23.30;53.00
40323;DHT22;26030;51.164;17.100;2023-03-30T00:37:34;23.30;53.00
40323;DHT22;26030;51.164;17.100;2023-03-30T00:42:39;23.20;52.80
40323;DHT22;26030;51.164;17.100;2023-03-30T00:47:44;23.20;53.10
40323;DHT22;26030;51.164;17.100;2023-03-30T00:52:52;23.20;53.10
40323;DHT22;26030;51.164;17.100;2023-03-30T00:57:59;23.20;53.20
40323;DHT22;26030;51.164;17.100;2023-03-30T01:03:06;23.30;52.80
40323;DHT22;26030;51.164;17.100;2023-03-30T01:08:17;23.30;52.90
40323;DHT22;26030;51.164;17.100;2023-03-30T01:13:22;23.30;53.00
40323;DHT22;26030;51.164;17.100;2023-03-30T01:18:29;23.20;53.50
40323;DHT22;26030;51.164;17.100;2023-03-30T01:40:07;22.90;53.50
40323;DHT22;26030;51.164;17.100;2023-03-30T01:45:29;22.80;53.80
40323;DHT22;26030;51.164;17.100;2023-03-30T01:50:37;22.90;53.60
40323;DHT22;26030;51.164;17.100;2023-03-30T01:55:51;22.80;53.60
40323;DHT22;26030;51.164;17.100;2023-03-30T02:01:05;22.80;53.90
40323;DHT22;26030;51.164;17.100;2023-03-30T02:06:27;22.70;54.10
40323;DHT22;26030;51.164;17.100;2023-03-30T02:11:42;22.60;54.50
40323;DHT22;26030;51.164;17.100;2023-03-30T02:16:49;22.50;54.40
40323;DHT22;26030;51.164;17.100;2023-03-30T02:21:59;22.60;54.40
40323;DHT22;26030;51.164;17.100;2023-03-30T02:27:05;22.50;53.90
40323;DHT22;26030;51.164;17.100;2023-03-30T02:32:20;22.50;54.60
40323;DHT22;26030;51.164;17.100;2023-03-30T02:54:01;22.20;55.50
40323;DHT22;26030;51.164;17.100;2023-03-30T03:00:02;22.10;54.90
40323;DHT22;26030;51.164;17.100;2023-03-30T03:05:15;22.10;54.90
40323;DHT22;26030;51.164;17.100;2023-03-30T03:10:40;22.10;54.80
40323;DHT22;26030;51.164;17.100;2023-03-30T03:15:45;22.10;55.00
40323;DHT22;26030;51.164;17.100;2023-03-30T03:20:52;22.00;55.10
40323;DHT22;26030;51.164;17.100;2023-03-30T03:25:58;22.00;55.10
40323;DHT22;26030;51.164;17.100;2023-03-30T03:31:03;22.00;55.20
40323;DHT22;26030;51.164;17.100;2023-03-30T03:36:09;21.90;55.30
40323;DHT22;26030;51.164;17.100;2023-03-30T03:41:22;21.90;55.10
40323;DHT22;26030;51.164;17.100;2023-03-30T03:46:26;21.90;55.30
40323;DHT22;26030;51.164;17.100;2023-03-30T03:51:30;21.90;55.40
40323;DHT22;26030;51.164;17.100;2023-03-30T03:56:35;21.80;55.30
40323;DHT22;26030;51.164;17.100;2023-03-30T04:01:39;21.80;55.30
40323;DHT22;26030;51.164;17.100;2023-03-30T04:06:43;22.10;55.70
40323;DHT22;26030;51.164;17.100;2023-03-30T04:11:47;22.30;54.90
40323;DHT22;26030;51.164;17.100;2023-03-30T04:17:09;22.40;54.80
40323;DHT22;26030;51.164;17.100;2023-03-30T04:22:22;22.70;54.20
40323;DHT22;26030;51.164;17.100;2023-03-30T04:27:56;23.00;53.30
40323;DHT22;26030;51.164;17.100;2023-03-30T04:33:33;23.00;53.00
40323;DHT22;26030;51.164;17.100;2023-03-30T04:38:57;23.10;52.80
40323;DHT22;26030;51.164;17.100;2023-03-30T04:44:21;23.10;53.50
40323;DHT22;26030;51.164;17.100;2023-03-30T04:49:47;23.10;52.80
40323;DHT22;26030;51.164;17.100;2023-03-30T04:55:14;23.10;52.80
40323;DHT22;26030;51.164;17.100;2023-03-30T05:00:27;23.10;52.80
40323;DHT22;26030;51.164;17.100;2023-03-30T05:05:52;23.20;52.80
40323;DHT22;26030;51.164;17.100;2023-03-30T05:11:20;23.30;52.70
40323;DHT22;26030;51.164;17.100;2023-03-30T05:16:35;23.30;52.60
40323;DHT22;26030;51.164;17.100;2023-03-30T05:22:00;23.40;52.50
40323;DHT22;26030;51.164;17.100;2023-03-30T05:27:39;23.40;52.30
40323;DHT22;26030;51.164;17.100;2023-03-30T05:33:00;23.40;52.60
40323;DHT22;26030;51.164;17.100;2023-03-30T05:38:20;23.40;52.60
40323;DHT22;26030;51.164;17.100;2023-03-30T05:43:53;23.40;53.00
40323;DHT22;26030;51.164;17.100;2023-03-30T05:49:16;23.20;53.20
40323;DHT22;26030;51.164;17.100;2023-03-30T05:54:46;23.10;53.60
40323;DHT22;26030;51.164;17.100;2023-03-30T06:00:07;23.00;54.30
40323;DHT22;26030;51.164;17.100;2023-03-30T06:05:20;23.00;54.60
40323;DHT22;26030;51.164;17.100;2023-03-30T06:10:24;23.00;54.60
40323;DHT22;26030;51.164;17.100;2023-03-30T06:15:29;23.00;55.40
40323;DHT22;26030;51.164;17.100;2023-03-30T06:20:40;22.80;55.90
40323;DHT22;26030;51.164;17.100;2023-03-30T06:25:48;22.80;55.70
40323;DHT22;26030;51.164;17.100;2023-03-30T06:30:58;22.80;56.00
40323;DHT22;26030;51.164;17.100;2023-03-30T06:36:10;22.70;55.30
40323;DHT22;26030;51.164;17.100;2023-03-30T06:41:15;22.70;55.80
40323;DHT22;26030;51.164;17.100;2023-03-30T06:46:20;22.70;55.50
40323;DHT22;26030;51.164;17.100;2023-03-30T06:51:25;22.70;55.50
40323;DHT22;26030;51.164;17.100;2023-03-30T06:56:30;22.70;55.50
40323;DHT22;26030;51.164;17.100;2023-03-30T07:01:46;22.50;55.80
40323;DHT22;26030;51.164;17.100;2023-03-30T07:07:26;22.40;55.40
40323;DHT22;26030;51.164;17.100;2023-03-30T07:12:30;22.40;55.40
40323;DHT22;26030;51.164;17.100;2023-03-30T07:17:35;22.30;55.50
40323;DHT22;26030;51.164;17.100;2023-03-30T07:22:40;22.30;55.40
40323;DHT22;26030;51.164;17.100;2023-03-30T07:27:45;22.20;55.30
40323;DHT22;26030;51.164;17.100;2023-03-30T07:32:50;22.30;55.40
40323;DHT22;26030;51.164;17.100;2023-03-30T07:37:57;22.20;55.60
40323;DHT22;26030;51.164;17.100;2023-03-30T07:43:09;22.20;55.00
40323;DHT22;26030;51.164;17.100;2023-03-30T07:48:15;22.20;55.60
40323;DHT22;26030;51.164;17.100;2023-03-30T07:53:19;22.20;54.60
40323;DHT22;26030;51.164;17.100;2023-03-30T07:58:26;22.10;54.80
40323;DHT22;26030;51.164;17.100;2023-03-30T08:03:31;22.10;55.10
40323;DHT22;26030;51.164;17.100;2023-03-30T08:08:36;22.10;55.10
40323;DHT22;26030;51.164;17.100;2023-03-30T08:13:44;22.20;55.30
40323;DHT22;26030;51.164;17.100;2023-03-30T08:18:48;22.20;55.10
40323;DHT22;26030;51.164;17.100;2023-03-30T08:23:52;22.30;54.90
40323;DHT22;26030;51.164;17.100;2023-03-30T08:28:58;22.30;54.70
40323;DHT22;26030;51.164;17.100;2023-03-30T08:34:02;22.30;55.20
40323;DHT22;26030;51.164;17.100;2023-03-30T08:39:07;22.30;54.80
40323;DHT22;26030;51.164;17.100;2023-03-30T08:49:45;22.30;54.90
40323;DHT22;26030;51.164;17.100;2023-03-30T08:54:58;22.30;56.50
40323;DHT22;26030;51.164;17.100;2023-03-30T09:05:42;22.40;56.10
40323;DHT22;26030;51.164;17.100;2023-03-30T09:10:58;22.40;55.70
40323;DHT22;26030;51.164;17.100;2023-03-30T09:16:21;22.40;55.30
40323;DHT22;26030;51.164;17.100;2023-03-30T09:21:50;22.20;55.70
40323;DHT22;26030;51.164;17.100;2023-03-30T09:26:57;22.10;56.30
40323;DHT22;26030;51.164;17.100;2023-03-30T09:37:17;22.10;56.20
40323;DHT22;26030;51.164;17.100;2023-03-30T09:42:37;22.20;56.40
40323;DHT22;26030;51.164;17.100;2023-03-30T09:48:05;22.10;56.20
40323;DHT22;26030;51.164;17.100;2023-03-30T09:53:19;22.10;56.40
40323;DHT22;26030;51.164;17.100;2023-03-30T09:58:32;22.20;56.60
40323;DHT22;26030;51.164;17.100;2023-03-30T10:03:37;22.20;56.60
40323;DHT22;26030;51.164;17.100;2023-03-30T10:08:53;22.20;56.40
40323;DHT22;26030;51.164;17.100;2023-03-30T10:13:59;22.30;56.60
40323;DHT22;26030;51.164;17.100;2023-03-30T10:19:08;22.30;56.80
40323;DHT22;26030;51.164;17.100;2023-03-30T10:24:21;22.30;56.70
40323;DHT22;26030;51.164;17.100;2023-03-30T10:29:27;22.30;56.60
40323;DHT22;26030;51.164;17.100;2023-03-30T10:39:42;22.50;55.90
40323;DHT22;26030;51.164;17.100;2023-03-30T10:44:50;22.60;55.80
40323;DHT22;26030;51.164;17.100;2023-03-30T10:55:19;22.60;56.40
40323;DHT22;26030;51.164;17.100;2023-03-30T11:05:51;22.50;56.70
40323;DHT22;26030;51.164;17.100;2023-03-30T11:10:59;22.60;57.50
40323;DHT22;26030;51.164;17.100;2023-03-30T11:21:14;22.60;57.70
40323;DHT22;26030;51.164;17.100;2023-03-30T11:26:28;22.60;58.00
40323;DHT22;26030;51.164;17.100;2023-03-30T11:42:38;22.60;58.60
40323;DHT22;26030;51.164;17.100;2023-03-30T11:47:55;22.60;59.10
40323;DHT22;26030;51.164;17.100;2023-03-30T12:03:55;22.50;60.00
40323;DHT22;26030;51.164;17.100;2023-03-30T12:20:10;22.50;61.30
40323;DHT22;26030;51.164;17.100;2023-03-30T12:26:01;22.40;61.10
40323;DHT22;26030;51.164;17.100;2023-03-30T12:31:03;22.40;61.30
40323;DHT22;26030;51.164;17.100;2023-03-30T12:41:36;22.40;61.20
40323;DHT22;26030;51.164;17.100;2023-03-30T12:52:42;22.40;61.70
40323;DHT22;26030;51.164;17.100;2023-03-30T13:08:36;22.30;62.60
40323;DHT22;26030;51.164;17.100;2023-03-30T13:13:47;22.30;62.20
40323;DHT22;26030;51.164;17.100;2023-03-30T13:18:54;22.30;62.30
40323;DHT22;26030;51.164;17.100;2023-03-30T13:24:20;22.30;62.00
40323;DHT22;26030;51.164;17.100;2023-03-30T13:29:28;22.40;62.10
40323;DHT22;26030;51.164;17.100;2023-03-30T13:39:53;22.30;62.80
40323;DHT22;26030;51.164;17.100;2023-03-30T13:45:29;22.30;63.00
40323;DHT22;26030;51.164;17.100;2023-03-30T13:50:35;22.30;62.80
40323;DHT22;26030;51.164;17.100;2023-03-30T13:55:41;22.40;62.60
40323;DHT22;26030;51.164;17.100;2023-03-30T14:00:57;22.40;62.80
40323;DHT22;26030;51.164;17.100;2023-03-30T14:06:12;22.40;62.30
40323;DHT22;26030;51.164;17.100;2023-03-30T14:11:21;22.30;62.50
40323;DHT22;26030;51.164;17.100;2023-03-30T14:16:35;22.20;62.50
40323;DHT22;26030;51.164;17.100;2023-03-30T14:21:42;22.30;62.10
40323;DHT22;26030;51.164;17.100;2023-03-30T14:26:47;22.30;62.40
40323;DHT22;26030;51.164;17.100;2023-03-30T14:31:52;22.40;62.00
40323;DHT22;26030;51.164;17.100;2023-03-30T14:37:10;22.40;61.30
40323;DHT22;26030;51.164;17.100;2023-03-30T14:42:16;22.40;61.10
40323;DHT22;26030;51.164;17.100;2023-03-30T14:47:23;22.30;61.20
40323;DHT22;26030;51.164;17.100;2023-03-30T14:52:31;22.20;61.80
40323;DHT22;26030;51.164;17.100;2023-03-30T14:57:40;22.10;62.60
40323;DHT22;26030;51.164;17.100;2023-03-30T15:02:47;22.10;62.30
40323;DHT22;26030;51.164;17.100;2023-03-30T15:07:56;22.10;62.60
40323;DHT22;26030;51.164;17.100;2023-03-30T15:13:01;22.30;61.50
40323;DHT22;26030;51.164;17.100;2023-03-30T15:18:06;22.20;61.50
40323;DHT22;26030;51.164;17.100;2023-03-30T15:23:12;22.20;61.80
40323;DHT22;26030;51.164;17.100;2023-03-30T15:28:17;22.10;62.80
40323;DHT22;26030;51.164;17.100;2023-03-30T15:38:46;22.10;62.10
40323;DHT22;26030;51.164;17.100;2023-03-30T15:43:55;22.10;64.40
40323;DHT22;26030;51.164;17.100;2023-03-30T15:49:01;22.10;65.10
40323;DHT22;26030;51.164;17.100;2023-03-30T15:54:06;22.30;64.20
40323;DHT22;26030;51.164;17.100;2023-03-30T15:59:20;22.20;66.60
40323;DHT22;26030;51.164;17.100;2023-03-30T16:04:31;22.30;66.60
40323;DHT22;26030;51.164;17.100;2023-03-30T16:09:35;22.20;65.90
40323;DHT22;26030;51.164;17.100;2023-03-30T16:14:41;22.20;65.90
40323;DHT22;26030;51.164;17.100;2023-03-30T16:19:48;22.10;65.80
40323;DHT22;26030;51.164;17.100;2023-03-30T16:24:59;22.10;64.90
40323;DHT22;26030;51.164;17.100;2023-03-30T16:36:15;22.20;64.30
40323;DHT22;26030;51.164;17.100;2023-03-30T16:41:22;22.10;64.20
40323;DHT22;26030;51.164;17.100;2023-03-30T16:46:30;22.10;63.70
40323;DHT22;26030;51.164;17.100;2023-03-30T16:51:39;22.20;63.60
40323;DHT22;26030;51.164;17.100;2023-03-30T16:56:48;22.20;63.30
40323;DHT22;26030;51.164;17.100;2023-03-30T17:01:55;22.20;63.10
40323;DHT22;26030;51.164;17.100;2023-03-30T17:06:59;22.10;62.90
40323;DHT22;26030;51.164;17.100;2023-03-30T17:12:04;22.20;63.20
40323;DHT22;26030;51.164;17.100;2023-03-30T17:17:10;22.30;62.60
40323;DHT22;26030;51.164;17.100;2023-03-30T17:22:15;22.20;62.80
40323;DHT22;26030;51.164;17.100;2023-03-30T17:27:20;22.20;62.60
40323;DHT22;26030;51.164;17.100;2023-03-30T18:37:01;22.20;60.80
40323;DHT22;26030;51.164;17.100;2023-03-30T18:42:07;21.90;60.40
40323;DHT22;26030;51.164;17.100;2023-03-30T18:47:13;21.90;60.30
40323;DHT22;26030;51.164;17.100;2023-03-30T18:52:20;21.90;61.80
40323;DHT22;26030;51.164;17.100;2023-03-30T18:57:27;21.90;62.90
40323;DHT22;26030;51.164;17.100;2023-03-30T19:02:34;21.90;63.80
40323;DHT22;26030;51.164;17.100;2023-03-30T19:07:41;21.90;65.10
40323;DHT22;26030;51.164;17.100;2023-03-30T19:12:47;21.90;68.30
40323;DHT22;26030;51.164;17.100;2023-03-30T19:17:57;22.00;71.10
40323;DHT22;26030;51.164;17.100;2023-03-30T19:23:10;22.10;69.70
40323;DHT22;26030;51.164;17.100;2023-03-30T19:28:18;22.10;68.20
40323;DHT22;26030;51.164;17.100;2023-03-30T19:33:25;22.10;67.60
40323;DHT22;26030;51.164;17.100;2023-03-30T19:38:31;22.20;66.70
40323;DHT22;26030;51.164;17.100;2023-03-30T19:43:37;22.10;66.30
40323;DHT22;26030;51.164;17.100;2023-03-30T19:48:43;22.00;66.40
40323;DHT22;26030;51.164;17.100;2023-03-30T19:53:49;22.00;65.70
40323;DHT22;26030;51.164;17.100;2023-03-30T19:58:56;21.90;65.80
40323;DHT22;26030;51.164;17.100;2023-03-30T20:04:03;21.90;65.30
40323;DHT22;26030;51.164;17.100;2023-03-30T20:09:11;21.90;65.20
40323;DHT22;26030;51.164;17.100;2023-03-30T20:14:18;21.80;65.20
40323;DHT22;26030;51.164;17.100;2023-03-30T20:19:23;21.80;64.90
40323;DHT22;26030;51.164;17.100;2023-03-30T20:24:32;21.90;65.00
40323;DHT22;26030;51.164;17.100;2023-03-30T20:29:36;22.00;64.10
40323;DHT22;26030;51.164;17.100;2023-03-30T20:34:41;22.10;64.40
40323;DHT22;26030;51.164;17.100;2023-03-30T20:39:49;22.00;63.50
40323;DHT22;26030;51.164;17.100;2023-03-30T20:44:53;21.90;64.30
40323;DHT22;26030;51.164;17.100;2023-03-30T20:49:58;21.90;64.00
40323;DHT22;26030;51.164;17.100;2023-03-30T20:55:02;21.90;63.80
40323;DHT22;26030;51.164;17.100;2023-03-30T21:00:07;21.90;63.30
40323;DHT22;26030;51.164;17.100;2023-03-30T21:05:12;21.90;63.20
40323;DHT22;26030;51.164;17.100;2023-03-30T21:10:16;22.00;67.60
40323;DHT22;26030;51.164;17.100;2023-03-30T21:15:20;22.10;67.50
40323;DHT22;26030;51.164;17.100;2023-03-30T21:20:24;22.00;67.40
40323;DHT22;26030;51.164;17.100;2023-03-30T21:25:28;21.90;67.30
40323;DHT22;26030;51.164;17.100;2023-03-30T21:30:33;21.80;67.40
40323;DHT22;26030;51.164;17.100;2023-03-30T21:35:38;21.70;67.60
40323;DHT22;26030;51.164;17.100;2023-03-30T21:40:52;21.70;66.90
40323;DHT22;26030;51.164;17.100;2023-03-30T21:46:08;21.80;70.30
40323;DHT22;26030;51.164;17.100;2023-03-30T21:51:19;21.80;70.70
40323;DHT22;26030;51.164;17.100;2023-03-30T21:56:26;21.90;69.20
40323;DHT22;26030;51.164;17.100;2023-03-30T22:01:31;21.90;68.50
40323;DHT22;26030;51.164;17.100;2023-03-30T22:06:36;22.00;67.80
40323;DHT22;26030;51.164;17.100;2023-03-30T22:11:40;21.80;68.40
40323;DHT22;26030;51.164;17.100;2023-03-30T22:16:44;21.60;68.00
40323;DHT22;26030;51.164;17.100;2023-03-30T22:21:49;21.80;67.60
40323;DHT22;26030;51.164;17.100;2023-03-30T22:26:54;21.80;68.30
40323;DHT22;26030;51.164;17.100;2023-03-30T22:31:58;21.70;67.90
40323;DHT22;26030;51.164;17.100;2023-03-30T22:37:02;21.80;67.80
40323;DHT22;26030;51.164;17.100;2023-03-30T22:42:06;21.80;67.70
40323;DHT22;26030;51.164;17.100;2023-03-30T22:47:11;21.80;66.70
40323;DHT22;26030;51.164;17.100;2023-03-30T22:52:15;21.80;66.60
40323;DHT22;26030;51.164;17.100;2023-03-30T22:57:19;21.80;66.30
40323;DHT22;26030;51.164;17.100;2023-03-30T23:02:23;21.80;66.10
40323;DHT22;26030;51.164;17.100;2023-03-30T23:07:28;21.80;66.20
40323;DHT22;26030;51.164;17.100;2023-03-30T23:12:33;21.70;66.50
40323;DHT22;26030;51.164;17.100;2023-03-30T23:17:38;21.90;66.20
40323;DHT22;26030;51.164;17.100;2023-03-30T23:22:42;22.30;64.80
40323;DHT22;26030;51.164;17.100;2023-03-30T23:27:46;22.40;64.20
40323;DHT22;26030;51.164;17.100;2023-03-30T23:32:50;22.70;64.20
40323;DHT22;26030;51.164;17.100;2023-03-30T23:37:54;22.90;62.80
40323;DHT22;26030;51.164;17.100;2023-03-30T23:42:59;23.00;62.40
40323;DHT22;26030;51.164;17.100;2023-03-30T23:48:03;23.00;62.40
40323;DHT22;26030;51.164;17.100;2023-03-30T23:53:07;23.00;62.80
40323;DHT22;26030;51.164;17.100;2023-03-30T23:58:12;23.00;62.40
